createdAt,value
2023-04-22T00:00:27.616Z,13.42
2023-04-22T00:01:27.579Z,13.46
2023-04-22T00:02:27.664Z,13.45
2023-04-22T00:03:27.848Z,13.36
2023-04-22T00:04:27.700Z,13.26
2023-04-22T00:05:27.681Z,13.23
2023-04-22T00:06:27.535Z,13.12
2023-04-22T00:07:27.511Z,13.03
2023-04-22T00:08:27.496Z,12.96
2023-04-22T00:09:27.489Z,12.86
2023-04-22T00:10:27.477Z,12.92
2023-04-22T00:11:27.488Z,12.86
2023-04-22T00:12:27.454Z,12.92
2023-04-22T00:13:27.445Z,12.86
2023-04-22T00:14:27.435Z,12.85
2023-04-22T00:15:27.426Z,12.85
2023-04-22T00:16:27.464Z,12.83
2023-04-22T00:17:27.438Z,12.83
2023-04-22T00:18:27.398Z,12.72
2023-04-22T00:19:27.370Z,12.70
2023-04-22T00:20:27.366Z,12.57
2023-04-22T00:21:27.445Z,12.52
2023-04-22T00:22:27.340Z,12.46
2023-04-22T00:23:27.341Z,12.37
2023-04-22T00:24:27.313Z,12.31
2023-04-22T00:25:27.305Z,12.31
2023-04-22T00:26:27.304Z,12.23
2023-04-22T00:27:27.283Z,12.31
2023-04-22T00:28:27.271Z,12.27
2023-04-22T00:29:27.258Z,12.13
2023-04-22T00:30:27.250Z,12.12
2023-04-22T00:31:27.294Z,12.05
2023-04-22T00:32:27.251Z,11.99
2023-04-22T00:33:27.216Z,11.94
2023-04-22T00:34:27.195Z,12.09
2023-04-22T00:35:27.186Z,11.95
2023-04-22T00:36:27.195Z,12.07
2023-04-22T00:37:27.188Z,12.09
2023-04-22T00:38:27.172Z,12.04
2023-04-22T00:39:27.189Z,11.98
2023-04-22T00:40:27.133Z,11.91
2023-04-22T00:41:27.131Z,11.83
2023-04-22T00:42:27.109Z,11.88
2023-04-22T00:43:27.096Z,11.85
2023-04-22T00:44:27.084Z,11.83
2023-04-22T00:45:27.087Z,11.80
2023-04-22T00:46:27.119Z,11.90
2023-04-22T00:47:27.208Z,11.98
2023-04-22T00:48:28.902Z,11.83
2023-04-22T00:49:27.026Z,11.78
2023-04-22T00:50:27.028Z,11.73
2023-04-22T00:51:27.031Z,11.65
2023-04-22T00:52:26.990Z,11.47
2023-04-22T00:53:27.000Z,11.51
2023-04-22T00:54:26.975Z,11.44
2023-04-22T00:55:26.969Z,11.37
2023-04-22T00:56:26.961Z,11.37
2023-04-22T00:57:26.936Z,11.28
2023-04-22T00:58:26.925Z,11.36
2023-04-22T00:59:26.912Z,11.39
2023-04-22T01:00:26.998Z,11.35
2023-04-22T01:01:27.074Z,11.24
2023-04-22T01:02:27.016Z,11.15
2023-04-22T01:03:27.049Z,11.14
2023-04-22T01:04:26.915Z,11.09
2023-04-22T01:05:26.854Z,11.10
2023-04-22T01:06:26.871Z,10.97
2023-04-22T01:07:26.824Z,10.99
2023-04-22T01:08:26.811Z,10.85
2023-04-22T01:09:26.827Z,10.85
2023-04-22T01:10:26.798Z,10.76
2023-04-22T01:11:26.803Z,10.81
2023-04-22T01:12:26.768Z,10.79
2023-04-22T01:13:26.766Z,10.67
2023-04-22T01:14:26.768Z,10.67
2023-04-22T01:15:26.742Z,10.61
2023-04-22T01:16:26.764Z,10.63
2023-04-22T01:17:26.762Z,10.66
2023-04-22T01:18:26.709Z,10.67
2023-04-22T01:19:26.693Z,10.74
2023-04-22T01:20:26.721Z,10.63
2023-04-22T01:21:27.205Z,10.60
2023-04-22T01:22:26.663Z,10.63
2023-04-22T01:23:26.645Z,10.51
2023-04-22T01:24:26.636Z,10.48
2023-04-22T01:25:26.641Z,10.36
2023-04-22T01:26:26.629Z,10.29
2023-04-22T01:27:26.601Z,10.29
2023-04-22T01:28:26.657Z,10.23
2023-04-22T01:29:26.584Z,10.38
2023-04-22T01:30:26.576Z,10.36
2023-04-22T01:31:26.585Z,10.51
2023-04-22T01:32:26.726Z,10.52
2023-04-22T01:33:26.565Z,10.48
2023-04-22T01:34:26.527Z,10.41
2023-04-22T01:35:26.527Z,10.48
2023-04-22T01:36:26.515Z,10.38
2023-04-22T01:37:26.495Z,10.34
2023-04-22T01:38:26.483Z,10.30
2023-04-22T01:39:26.471Z,10.30
2023-04-22T01:40:26.458Z,10.29
2023-04-22T01:41:26.471Z,10.29
2023-04-22T01:42:26.439Z,10.29
2023-04-22T01:43:26.421Z,10.29
2023-04-22T01:44:26.430Z,10.27
2023-04-22T01:45:26.399Z,10.27
2023-04-22T01:46:26.546Z,10.26
2023-04-22T01:47:26.382Z,10.34
2023-04-22T01:48:26.376Z,10.34
2023-04-22T01:49:26.353Z,10.25
2023-04-22T01:50:26.353Z,10.25
2023-04-22T01:51:26.351Z,10.15
2023-04-22T01:52:26.325Z,10.14
2023-04-22T01:53:26.310Z,10.01
2023-04-22T01:54:26.300Z,10.05
2023-04-22T01:55:26.292Z,9.91
2023-04-22T01:56:26.302Z,9.94
2023-04-22T01:57:26.309Z,9.99
2023-04-22T01:58:26.254Z,9.89
2023-04-22T01:59:26.241Z,9.87
2023-04-22T02:00:26.246Z,9.89
2023-04-22T02:01:26.312Z,9.90
2023-04-22T02:02:26.295Z,9.86
2023-04-22T02:03:26.353Z,9.78
2023-04-22T02:04:26.231Z,9.71
2023-04-22T02:05:26.166Z,9.79
2023-04-22T02:06:26.176Z,9.61
2023-04-22T02:07:26.148Z,9.64
2023-04-22T02:08:26.141Z,9.66
2023-04-22T02:09:26.124Z,9.61
2023-04-22T02:10:26.117Z,9.58
2023-04-22T02:11:26.112Z,9.51
2023-04-22T02:12:26.096Z,9.51
2023-04-22T02:13:26.101Z,9.50
2023-04-22T02:14:26.068Z,9.50
2023-04-22T02:15:26.059Z,9.51
2023-04-22T02:16:26.089Z,9.54
2023-04-22T02:17:26.034Z,9.53
2023-04-22T02:18:26.035Z,9.50
2023-04-22T02:19:26.061Z,9.47
2023-04-22T02:20:25.995Z,9.54
2023-04-22T02:21:25.995Z,9.56
2023-04-22T02:22:25.972Z,9.40
2023-04-22T02:23:25.984Z,9.54
2023-04-22T02:24:25.961Z,9.50
2023-04-22T02:25:25.942Z,9.53
2023-04-22T02:26:25.972Z,9.47
2023-04-22T02:27:25.923Z,9.54
2023-04-22T02:28:25.909Z,9.51
2023-04-22T02:29:25.919Z,9.56
2023-04-22T02:30:25.902Z,9.54
2023-04-22T02:31:25.972Z,9.50
2023-04-22T02:32:25.916Z,9.46
2023-04-22T02:33:25.855Z,9.47
2023-04-22T02:34:25.840Z,9.54
2023-04-22T02:35:25.825Z,9.56
2023-04-22T02:36:25.833Z,9.42
2023-04-22T02:37:25.799Z,9.47
2023-04-22T02:38:25.800Z,9.42
2023-04-22T02:39:25.797Z,9.35
2023-04-22T02:40:25.775Z,9.47
2023-04-22T02:41:25.770Z,9.39
2023-04-22T02:42:25.747Z,9.42
2023-04-22T02:43:25.740Z,9.36
2023-04-22T02:44:25.722Z,9.39
2023-04-22T02:45:25.759Z,9.40
2023-04-22T02:46:25.782Z,9.46
2023-04-22T02:47:25.723Z,9.51
2023-04-22T02:48:25.675Z,9.48
2023-04-22T02:49:25.679Z,9.50
2023-04-22T02:50:25.655Z,9.60
2023-04-22T02:51:25.668Z,9.64
2023-04-22T02:52:25.631Z,9.65
2023-04-22T02:53:25.616Z,9.74
2023-04-22T02:54:25.612Z,9.81
2023-04-22T02:55:25.593Z,9.83
2023-04-22T02:56:25.596Z,9.78
2023-04-22T02:57:25.572Z,9.84
2023-04-22T02:58:25.565Z,9.90
2023-04-22T02:59:25.567Z,9.89
2023-04-22T03:00:25.534Z,9.89
2023-04-22T03:01:25.642Z,9.76
2023-04-22T03:02:25.657Z,9.90
2023-04-22T03:03:25.615Z,9.89
2023-04-22T03:04:25.812Z,9.83
2023-04-22T03:05:25.492Z,9.83
2023-04-22T03:06:25.495Z,9.90
2023-04-22T03:07:25.461Z,9.90
2023-04-22T03:08:25.442Z,9.83
2023-04-22T03:09:25.432Z,9.91
2023-04-22T03:10:25.433Z,9.84
2023-04-22T03:11:25.432Z,9.84
2023-04-22T03:12:25.420Z,9.90
2023-04-22T03:13:25.401Z,9.87
2023-04-22T03:14:25.379Z,9.78
2023-04-22T03:15:25.366Z,9.81
2023-04-22T03:16:25.430Z,9.79
2023-04-22T03:17:25.393Z,9.69
2023-04-22T03:18:25.334Z,9.78
2023-04-22T03:19:25.330Z,9.75
2023-04-22T03:20:25.311Z,9.75
2023-04-22T03:21:25.317Z,9.83
2023-04-22T03:22:25.297Z,9.81
2023-04-22T03:23:25.286Z,9.87
2023-04-22T03:24:25.269Z,9.93
2023-04-22T03:25:25.264Z,10.01
2023-04-22T03:26:25.263Z,10.05
2023-04-22T03:27:25.238Z,10.07
2023-04-22T03:28:25.279Z,10.12
2023-04-22T03:29:25.212Z,10.17
2023-04-22T03:30:25.214Z,10.15
2023-04-22T03:31:25.247Z,10.14
2023-04-22T03:32:25.206Z,10.15
2023-04-22T03:33:25.188Z,10.15
2023-04-22T03:34:25.154Z,10.22
2023-04-22T03:35:25.150Z,10.23
2023-04-22T03:36:25.153Z,10.29
2023-04-22T03:37:25.119Z,10.38
2023-04-22T03:38:25.112Z,10.48
2023-04-22T03:39:25.111Z,10.52
2023-04-22T03:40:25.087Z,10.44
2023-04-22T03:41:25.100Z,10.47
2023-04-22T03:42:25.063Z,10.48
2023-04-22T03:43:25.051Z,10.53
2023-04-22T03:44:25.046Z,10.48
2023-04-22T03:45:25.041Z,10.47
2023-04-22T03:46:25.082Z,10.52
2023-04-22T03:47:25.101Z,10.51
2023-04-22T03:48:24.996Z,10.53
2023-04-22T03:49:25.024Z,10.55
2023-04-22T03:50:24.976Z,10.51
2023-04-22T03:51:24.975Z,10.51
2023-04-22T03:52:24.978Z,10.56
2023-04-22T03:53:24.947Z,10.52
2023-04-22T03:54:24.933Z,10.47
2023-04-22T03:55:24.924Z,10.51
2023-04-22T03:56:24.906Z,10.51
2023-04-22T03:57:24.955Z,10.67
2023-04-22T03:58:24.886Z,10.61
2023-04-22T03:59:24.871Z,10.64
2023-04-22T04:00:24.861Z,10.64
2023-04-22T04:01:24.848Z,10.56
2023-04-22T04:02:24.994Z,10.63
2023-04-22T04:03:25.202Z,10.60
2023-04-22T04:04:25.222Z,10.68
2023-04-22T04:05:24.909Z,10.59
2023-04-22T04:06:24.801Z,10.59
2023-04-22T04:07:24.796Z,10.63
2023-04-22T04:08:24.774Z,10.68
2023-04-22T04:09:24.759Z,10.71
2023-04-22T04:10:24.754Z,10.63
2023-04-22T04:11:24.762Z,10.63
2023-04-22T04:12:24.752Z,10.64
2023-04-22T04:13:24.716Z,10.63
2023-04-22T04:14:24.722Z,10.66
2023-04-22T04:15:24.700Z,10.63
2023-04-22T04:16:24.752Z,10.66
2023-04-22T04:17:24.707Z,10.63
2023-04-22T04:18:24.662Z,10.63
2023-04-22T04:19:24.654Z,10.63
2023-04-22T04:20:24.636Z,10.64
2023-04-22T04:21:24.722Z,10.63
2023-04-22T04:22:24.653Z,10.61
2023-04-22T04:23:24.603Z,10.68
2023-04-22T04:24:24.595Z,10.71
2023-04-22T04:25:24.583Z,10.67
2023-04-22T04:26:24.579Z,10.71
2023-04-22T04:27:24.568Z,10.82
2023-04-22T04:28:24.547Z,10.88
2023-04-22T04:29:24.538Z,10.85
2023-04-22T04:30:24.528Z,11.00
2023-04-22T04:31:24.638Z,11.03
2023-04-22T04:32:24.567Z,10.96
2023-04-22T04:33:24.491Z,11.07
2023-04-22T04:34:24.489Z,11.09
2023-04-22T04:35:24.468Z,11.10
2023-04-22T04:36:24.453Z,11.07
2023-04-22T04:37:24.582Z,11.00
2023-04-22T04:38:24.436Z,10.96
2023-04-22T04:39:24.419Z,10.92
2023-04-22T04:40:24.407Z,10.96
2023-04-22T04:41:24.405Z,10.86
2023-04-22T04:42:24.410Z,10.84
2023-04-22T04:43:24.387Z,10.86
2023-04-22T04:44:24.365Z,10.74
2023-04-22T04:45:24.357Z,10.76
2023-04-22T04:46:24.394Z,10.78
2023-04-22T04:47:24.384Z,10.71
2023-04-22T04:48:24.326Z,10.60
2023-04-22T04:49:24.333Z,10.73
2023-04-22T04:50:24.317Z,10.70
2023-04-22T04:51:24.304Z,10.66
2023-04-22T04:52:24.297Z,10.76
2023-04-22T04:53:24.275Z,10.67
2023-04-22T04:54:24.258Z,10.70
2023-04-22T04:55:24.240Z,10.71
2023-04-22T04:56:24.248Z,10.71
2023-04-22T04:57:24.219Z,10.61
2023-04-22T04:58:24.209Z,10.60
2023-04-22T04:59:24.205Z,10.68
2023-04-22T05:00:24.191Z,10.70
2023-04-22T05:01:24.239Z,10.76
2023-04-22T05:02:24.380Z,10.76
2023-04-22T05:03:24.265Z,10.81
2023-04-22T05:04:24.296Z,10.92
2023-04-22T05:05:24.140Z,10.92
2023-04-22T05:06:24.128Z,11.02
2023-04-22T05:07:24.136Z,11.04
2023-04-22T05:08:24.090Z,11.04
2023-04-22T05:09:24.104Z,11.03
2023-04-22T05:10:24.084Z,11.02
2023-04-22T05:11:24.070Z,11.14
2023-04-22T05:12:24.097Z,11.11
2023-04-22T05:13:24.055Z,11.14
2023-04-22T05:14:24.037Z,11.19
2023-04-22T05:15:24.015Z,11.19
2023-04-22T05:16:24.060Z,11.32
2023-04-22T05:17:24.039Z,11.32
2023-04-22T05:18:23.983Z,11.40
2023-04-22T05:19:23.974Z,11.35
2023-04-22T05:20:23.977Z,11.37
2023-04-22T05:21:23.957Z,11.37
2023-04-22T05:22:23.964Z,11.43
2023-04-22T05:23:23.927Z,11.51
2023-04-22T05:24:23.936Z,11.44
2023-04-22T05:25:23.930Z,11.44
2023-04-22T05:26:23.893Z,11.55
2023-04-22T05:27:23.904Z,11.73
2023-04-22T05:28:23.877Z,11.67
2023-04-22T05:29:23.862Z,11.76
2023-04-22T05:30:23.856Z,11.69
2023-04-22T05:31:23.902Z,11.67
2023-04-22T05:32:23.934Z,11.70
2023-04-22T05:33:23.828Z,11.83
2023-04-22T05:34:23.803Z,11.86
2023-04-22T05:35:23.793Z,11.82
2023-04-22T05:36:23.781Z,11.86
2023-04-22T05:37:23.969Z,11.90
2023-04-22T05:38:23.758Z,12.02
2023-04-22T05:39:23.751Z,12.04
2023-04-22T05:40:23.739Z,12.04
2023-04-22T05:41:23.741Z,12.12
2023-04-22T05:42:23.741Z,12.09
2023-04-22T05:43:23.704Z,12.09
2023-04-22T05:44:23.697Z,12.20
2023-04-22T05:45:23.682Z,12.28
2023-04-22T05:46:23.775Z,12.29
2023-04-22T05:47:23.725Z,12.31
2023-04-22T05:48:23.646Z,12.27
2023-04-22T05:49:23.632Z,12.35
2023-04-22T05:50:23.622Z,12.29
2023-04-22T05:51:23.628Z,12.39
2023-04-22T05:52:23.623Z,12.38
2023-04-22T05:53:23.588Z,12.47
2023-04-22T05:54:23.574Z,12.75
2023-04-22T05:55:23.570Z,13.12
2023-04-22T05:56:23.559Z,13.55
2023-04-22T05:57:23.574Z,13.84
2023-04-22T05:58:23.525Z,14.25
2023-04-22T05:59:23.520Z,14.60
2023-04-22T06:00:23.512Z,14.94
2023-04-22T06:01:23.507Z,15.21
2023-04-22T06:02:23.620Z,15.32
2023-04-22T06:03:23.647Z,15.36
2023-04-22T06:04:23.950Z,15.38
2023-04-22T06:05:23.599Z,15.56
2023-04-22T06:06:23.440Z,15.65
2023-04-22T06:07:23.459Z,15.76
2023-04-22T06:08:23.423Z,15.92
2023-04-22T06:09:23.412Z,15.89
2023-04-22T06:10:23.418Z,15.87
2023-04-22T06:11:23.393Z,16.01
2023-04-22T06:12:23.385Z,16.07
2023-04-22T06:13:23.373Z,15.84
2023-04-22T06:14:23.349Z,15.72
2023-04-22T06:15:23.337Z,15.67
2023-04-22T06:16:23.332Z,15.54
2023-04-22T06:17:23.357Z,15.60
2023-04-22T06:18:23.315Z,15.54
2023-04-22T06:19:23.292Z,15.50
2023-04-22T06:20:23.274Z,15.41
2023-04-22T06:21:23.266Z,15.34
2023-04-22T06:22:23.279Z,15.32
2023-04-22T06:23:23.263Z,15.35
2023-04-22T06:24:23.242Z,15.34
2023-04-22T06:25:23.229Z,15.34
2023-04-22T06:26:23.233Z,15.35
2023-04-22T06:27:23.234Z,15.53
2023-04-22T06:28:23.181Z,15.56
2023-04-22T06:29:23.197Z,15.65
2023-04-22T06:30:23.183Z,15.68
2023-04-22T06:31:23.168Z,15.67
2023-04-22T06:32:23.156Z,15.74
2023-04-22T06:33:23.130Z,15.72
2023-04-22T06:34:23.116Z,15.74
2023-04-22T06:35:23.129Z,15.72
2023-04-22T06:36:23.096Z,15.76
2023-04-22T06:37:23.100Z,15.72
2023-04-22T06:38:23.090Z,15.82
2023-04-22T06:39:23.064Z,15.83
2023-04-22T06:40:23.053Z,15.86
2023-04-22T06:41:23.039Z,15.93
2023-04-22T06:42:23.038Z,16.00
2023-04-22T06:43:23.021Z,16.12
2023-04-22T06:44:23.003Z,16.15
2023-04-22T06:45:23.117Z,16.20
2023-04-22T06:46:23.040Z,16.24
2023-04-22T06:47:23.009Z,16.24
2023-04-22T06:48:22.964Z,16.21
2023-04-22T06:49:22.957Z,16.23
2023-04-22T06:50:22.949Z,16.25
2023-04-22T06:51:22.942Z,16.34
2023-04-22T06:52:24.083Z,16.42
2023-04-22T06:53:22.898Z,16.45
2023-04-22T06:54:22.891Z,16.48
2023-04-22T06:55:22.883Z,16.43
2023-04-22T06:56:22.866Z,16.67
2023-04-22T06:57:22.873Z,16.57
2023-04-22T06:58:22.849Z,16.76
2023-04-22T06:59:22.836Z,16.75
2023-04-22T07:00:22.825Z,16.79
2023-04-22T07:01:22.872Z,16.91
2023-04-22T07:02:22.929Z,17.04
2023-04-22T07:03:23.006Z,16.97
2023-04-22T07:04:22.814Z,16.94
2023-04-22T07:05:22.768Z,17.06
2023-04-22T07:06:22.754Z,17.03
2023-04-22T07:07:22.768Z,16.96
2023-04-22T07:08:22.735Z,17.00
2023-04-22T07:09:22.717Z,17.15
2023-04-22T07:10:22.707Z,17.08
2023-04-22T07:11:22.707Z,17.16
2023-04-22T07:12:22.707Z,17.19
2023-04-22T07:13:22.681Z,17.34
2023-04-22T07:14:22.666Z,17.36
2023-04-22T07:15:22.652Z,17.30
2023-04-22T07:16:22.699Z,17.36
2023-04-22T07:17:22.858Z,17.38
2023-04-22T07:18:22.626Z,17.48
2023-04-22T07:19:22.611Z,17.49
2023-04-22T07:20:22.615Z,17.71
2023-04-22T07:21:22.586Z,17.72
2023-04-22T07:22:22.591Z,17.96
2023-04-22T07:23:22.561Z,17.93
2023-04-22T07:24:22.553Z,18.11
2023-04-22T07:25:22.547Z,18.25
2023-04-22T07:26:22.528Z,18.33
2023-04-22T07:27:22.530Z,18.44
2023-04-22T07:28:22.508Z,18.50
2023-04-22T07:29:22.495Z,18.52
2023-04-22T07:30:22.497Z,18.44
2023-04-22T07:31:22.489Z,18.51
2023-04-22T07:32:22.512Z,18.58
2023-04-22T07:33:22.464Z,18.62
2023-04-22T07:34:22.443Z,18.78
2023-04-22T07:35:22.426Z,18.84
2023-04-22T07:36:22.421Z,18.87
2023-04-22T07:37:22.419Z,19.04
2023-04-22T07:38:22.389Z,19.07
2023-04-22T07:39:22.375Z,18.88
2023-04-22T07:40:22.400Z,18.91
2023-04-22T07:41:22.363Z,19.13
2023-04-22T07:42:22.370Z,19.11
2023-04-22T07:43:22.332Z,19.26
2023-04-22T07:44:22.324Z,19.28
2023-04-22T07:45:22.312Z,19.39
2023-04-22T07:46:22.317Z,19.50
2023-04-22T07:47:22.334Z,19.31
2023-04-22T07:48:22.282Z,19.36
2023-04-22T07:49:22.283Z,19.55
2023-04-22T07:50:22.259Z,19.61
2023-04-22T07:51:22.247Z,19.54
2023-04-22T07:52:22.257Z,19.62
2023-04-22T07:53:22.231Z,19.92
2023-04-22T07:54:22.222Z,19.99
2023-04-22T07:55:22.196Z,20.16
2023-04-22T07:56:22.186Z,20.28
2023-04-22T07:57:22.227Z,20.43
2023-04-22T07:58:22.222Z,20.47
2023-04-22T07:59:22.152Z,20.08
2023-04-22T08:00:22.150Z,20.05
2023-04-22T08:01:22.171Z,20.24
2023-04-22T08:02:22.197Z,20.52
2023-04-22T08:03:22.281Z,20.67
2023-04-22T08:04:22.400Z,20.42
2023-04-22T08:05:22.185Z,20.51
2023-04-22T08:06:22.082Z,20.51
2023-04-22T08:08:22.056Z,20.87
2023-04-22T08:09:22.046Z,20.95
2023-04-22T08:10:22.037Z,21.12
2023-04-22T08:11:22.036Z,21.13
2023-04-22T08:12:22.029Z,20.98
2023-04-22T08:13:22.020Z,20.77
2023-04-22T08:14:22.001Z,20.70
2023-04-22T08:15:21.988Z,20.61
2023-04-22T08:16:22.042Z,20.52
2023-04-22T08:17:22.171Z,20.62
2023-04-22T08:18:21.948Z,20.57
2023-04-22T08:19:21.960Z,20.69
2023-04-22T08:20:21.980Z,20.88
2023-04-22T08:21:21.935Z,21.07
2023-04-22T08:22:21.917Z,21.10
2023-04-22T08:23:21.902Z,21.27
2023-04-22T08:24:21.896Z,21.46
2023-04-22T08:25:21.891Z,21.54
2023-04-22T08:26:21.857Z,21.46
2023-04-22T08:27:21.890Z,21.44
2023-04-22T08:28:21.841Z,21.47
2023-04-22T08:29:21.824Z,21.38
2023-04-22T08:30:21.899Z,21.54
2023-04-22T08:31:21.816Z,21.34
2023-04-22T08:32:21.860Z,21.42
2023-04-22T08:33:21.793Z,21.67
2023-04-22T08:34:21.792Z,21.71
2023-04-22T08:35:21.785Z,21.61
2023-04-22T08:36:21.763Z,21.67
2023-04-22T08:37:21.771Z,21.77
2023-04-22T08:38:21.727Z,21.98
2023-04-22T08:39:21.722Z,21.91
2023-04-22T08:40:21.734Z,21.98
2023-04-22T08:41:21.708Z,21.98
2023-04-22T08:42:21.963Z,22.00
2023-04-22T08:43:21.676Z,21.98
2023-04-22T08:44:21.664Z,22.00
2023-04-22T08:45:21.645Z,22.14
2023-04-22T08:46:21.656Z,22.07
2023-04-22T08:47:21.646Z,22.02
2023-04-22T08:48:57.547Z,21.86
2023-04-22T08:49:21.601Z,21.69
2023-04-22T08:50:21.585Z,21.79
2023-04-22T08:51:21.578Z,21.68
2023-04-22T08:52:21.693Z,21.53
2023-04-22T08:53:24.260Z,21.56
2023-04-22T08:54:21.544Z,21.38
2023-04-22T08:55:21.540Z,21.44
2023-04-22T08:56:21.519Z,21.52
2023-04-22T08:57:21.535Z,21.64
2023-04-22T08:58:21.498Z,21.74
2023-04-22T08:59:21.491Z,21.75
2023-04-22T09:00:21.581Z,21.86
2023-04-22T09:01:21.486Z,21.90
2023-04-22T09:02:21.488Z,22.06
2023-04-22T09:03:21.543Z,22.15
2023-04-22T09:04:21.617Z,22.12
2023-04-22T09:05:21.419Z,22.12
2023-04-22T09:06:21.406Z,22.31
2023-04-22T09:07:21.935Z,22.45
2023-04-22T09:08:21.380Z,22.65
2023-04-22T09:09:21.392Z,22.60
2023-04-22T09:10:21.365Z,22.62
2023-04-22T09:11:21.350Z,22.61
2023-04-22T09:12:21.357Z,22.76
2023-04-22T09:13:21.327Z,22.92
2023-04-22T09:14:21.322Z,22.98
2023-04-22T09:15:21.312Z,23.10
2023-04-22T09:16:21.329Z,23.13
2023-04-22T09:17:21.323Z,23.16
2023-04-22T09:18:21.277Z,23.10
2023-04-22T09:19:21.267Z,23.01
2023-04-22T09:20:21.248Z,23.12
2023-04-22T09:21:21.241Z,23.01
2023-04-22T09:22:21.244Z,23.09
2023-04-22T09:23:21.216Z,23.16
2023-04-22T09:24:21.218Z,23.33
2023-04-22T09:25:21.213Z,23.46
2023-04-22T09:26:21.187Z,23.47
2023-04-22T09:27:21.196Z,23.31
2023-04-22T09:28:21.226Z,23.39
2023-04-22T09:29:21.159Z,23.48
2023-04-22T09:30:21.144Z,23.60
2023-04-22T09:31:21.171Z,23.61
2023-04-22T09:32:21.147Z,23.22
2023-04-22T09:33:21.117Z,22.88
2023-04-22T09:34:21.112Z,22.88
2023-04-22T09:35:21.091Z,23.17
2023-04-22T09:36:21.076Z,23.31
2023-04-22T09:37:21.099Z,23.17
2023-04-22T09:38:21.051Z,23.43
2023-04-22T09:39:21.044Z,23.32
2023-04-22T09:40:21.028Z,23.10
2023-04-22T09:41:21.037Z,22.86
2023-04-22T09:42:21.016Z,22.97
2023-04-22T09:43:21.016Z,23.22
2023-04-22T09:44:20.983Z,23.50
2023-04-22T09:45:20.972Z,23.58
2023-04-22T09:46:21.165Z,23.69
2023-04-22T09:47:20.962Z,23.90
2023-04-22T09:48:20.937Z,24.00
2023-04-22T09:49:20.928Z,23.88
2023-04-22T09:50:20.911Z,23.87
2023-04-22T09:51:20.902Z,23.87
2023-04-22T09:52:20.907Z,23.80
2023-04-22T09:53:20.879Z,23.53
2023-04-22T09:54:20.871Z,23.51
2023-04-22T09:55:20.866Z,23.68
2023-04-22T09:56:20.852Z,23.57
2023-04-22T09:57:20.891Z,23.51
2023-04-22T09:58:20.844Z,23.47
2023-04-22T09:59:20.829Z,23.76
2023-04-22T10:00:20.812Z,23.79
2023-04-22T10:01:20.866Z,23.97
2023-04-22T10:02:20.868Z,24.10
2023-04-22T10:03:20.800Z,23.87
2023-04-22T10:04:20.788Z,23.95
2023-04-22T10:05:20.769Z,24.06
2023-04-22T10:06:20.746Z,24.12
2023-04-22T10:07:20.768Z,23.98
2023-04-22T10:08:20.723Z,23.65
2023-04-22T10:09:20.706Z,23.51
2023-04-22T10:10:20.695Z,23.33
2023-04-22T10:11:20.692Z,23.50
2023-04-22T10:12:29.469Z,23.46
2023-04-22T10:13:21.679Z,23.28
2023-04-22T10:14:20.677Z,23.25
2023-04-22T10:15:20.657Z,23.50
2023-04-22T10:16:20.639Z,23.58
2023-04-22T10:17:20.616Z,23.85
2023-04-22T10:18:20.614Z,24.16
2023-04-22T10:19:20.595Z,24.08
2023-04-22T10:20:20.584Z,23.87
2023-04-22T10:21:20.580Z,23.98
2023-04-22T10:22:20.557Z,24.37
2023-04-22T10:23:20.579Z,24.02
2023-04-22T10:24:20.541Z,23.91
2023-04-22T10:25:20.521Z,23.91
2023-04-22T10:26:20.514Z,24.05
2023-04-22T10:27:20.503Z,23.87
2023-04-22T10:28:20.514Z,24.03
2023-04-22T10:29:20.510Z,24.24
2023-04-22T10:30:20.482Z,24.43
2023-04-22T10:31:20.520Z,24.43
2023-04-22T10:32:20.516Z,24.46
2023-04-22T10:33:20.464Z,24.55
2023-04-22T10:34:20.429Z,24.50
2023-04-22T10:35:20.429Z,24.39
2023-04-22T10:36:20.403Z,24.50
2023-04-22T10:37:20.408Z,24.49
2023-04-22T10:38:20.393Z,24.37
2023-04-22T10:39:20.369Z,23.98
2023-04-22T10:40:20.385Z,23.97
2023-04-22T10:41:20.351Z,23.88
2023-04-22T10:42:20.333Z,23.83
2023-04-22T10:43:20.396Z,23.83
2023-04-22T10:44:20.372Z,24.00
2023-04-22T10:45:20.347Z,24.06
2023-04-22T10:46:20.318Z,24.09
2023-04-22T10:47:20.289Z,24.09
2023-04-22T10:48:20.318Z,24.13
2023-04-22T10:49:20.271Z,23.93
2023-04-22T10:50:20.268Z,23.84
2023-04-22T10:51:20.357Z,24.00
2023-04-22T10:52:20.272Z,24.10
2023-04-22T10:53:20.257Z,24.18
2023-04-22T10:54:20.221Z,24.21
2023-04-22T10:55:20.194Z,24.24
2023-04-22T10:56:20.195Z,24.35
2023-04-22T10:57:20.178Z,24.49
2023-04-22T10:58:20.173Z,24.62
2023-04-22T10:59:20.150Z,24.62
2023-04-22T11:00:20.163Z,24.84
2023-04-22T11:01:20.180Z,24.90
2023-04-22T11:02:20.135Z,24.83
2023-04-22T11:03:20.369Z,24.65
2023-04-22T11:04:20.311Z,24.78
2023-04-22T11:05:20.087Z,24.91
2023-04-22T11:06:20.080Z,24.91
2023-04-22T11:07:20.075Z,24.90
2023-04-22T11:08:20.069Z,24.95
2023-04-22T11:09:20.055Z,24.85
2023-04-22T11:10:20.081Z,24.93
2023-04-22T11:11:20.128Z,24.83
2023-04-22T11:12:20.046Z,24.85
2023-04-22T11:13:20.011Z,24.71
2023-04-22T11:14:19.992Z,24.77
2023-04-22T11:15:19.996Z,24.69
2023-04-22T11:16:21.050Z,24.58
2023-04-22T11:17:19.971Z,24.50
2023-04-22T11:18:19.966Z,24.49
2023-04-22T11:19:19.951Z,24.28
2023-04-22T11:20:19.926Z,24.27
2023-04-22T11:21:19.929Z,24.35
2023-04-22T11:22:19.901Z,24.34
2023-04-22T11:23:19.946Z,24.42
2023-04-22T11:24:19.881Z,24.50
2023-04-22T11:25:19.878Z,24.43
2023-04-22T11:26:19.858Z,24.47
2023-04-22T11:27:19.847Z,24.43
2023-04-22T11:28:21.522Z,24.40
2023-04-22T11:29:19.822Z,24.65
2023-04-22T11:30:19.820Z,24.73
2023-04-22T11:31:19.883Z,24.78
2023-04-22T11:32:19.795Z,24.76
2023-04-22T11:33:19.817Z,24.76
2023-04-22T11:34:19.774Z,24.58
2023-04-22T11:35:19.781Z,24.49
2023-04-22T11:36:19.752Z,24.58
2023-04-22T11:37:19.742Z,24.49
2023-04-22T11:38:19.739Z,24.45
2023-04-22T11:39:19.713Z,24.40
2023-04-22T11:40:28.875Z,24.37
2023-04-22T11:41:20.697Z,24.47
2023-04-22T11:42:19.687Z,24.62
2023-04-22T11:43:19.685Z,24.64
2023-04-22T11:44:19.666Z,24.76
2023-04-22T11:45:19.658Z,24.69
2023-04-22T11:46:21.144Z,24.69
2023-04-22T11:47:19.625Z,24.77
2023-04-22T11:48:19.630Z,24.76
2023-04-22T11:49:19.624Z,24.96
2023-04-22T11:50:19.597Z,24.58
2023-04-22T11:51:19.587Z,24.65
2023-04-22T11:52:20.269Z,24.71
2023-04-22T11:53:19.576Z,24.78
2023-04-22T11:54:19.556Z,24.93
2023-04-22T11:55:19.539Z,24.81
2023-04-22T11:56:19.528Z,24.87
2023-04-22T11:57:19.515Z,24.43
2023-04-22T11:58:19.519Z,24.57
2023-04-22T11:59:19.495Z,24.57
2023-04-22T12:00:19.485Z,24.65
2023-04-22T12:01:19.475Z,24.53
2023-04-22T12:02:19.632Z,24.60
2023-04-22T12:03:19.753Z,24.73
2023-04-22T12:04:19.552Z,24.80
2023-04-22T12:05:19.495Z,24.69
2023-04-22T12:06:19.418Z,24.90
2023-04-22T12:07:19.408Z,24.98
2023-04-22T12:08:19.414Z,24.77
2023-04-22T12:09:19.386Z,24.71
2023-04-22T12:10:19.380Z,24.65
2023-04-22T12:11:19.366Z,24.61
2023-04-22T12:12:19.350Z,24.67
2023-04-22T12:13:19.386Z,24.60
2023-04-22T12:14:19.331Z,24.42
2023-04-22T12:15:19.315Z,24.35
2023-04-22T12:16:19.806Z,24.37
2023-04-22T12:17:19.377Z,24.32
2023-04-22T12:18:19.294Z,24.16
2023-04-22T12:19:19.276Z,23.98
2023-04-22T12:20:19.261Z,23.98
2023-04-22T12:21:19.269Z,23.94
2023-04-22T12:22:19.244Z,23.72
2023-04-22T12:23:19.237Z,23.76
2023-04-22T12:24:19.234Z,23.88
2023-04-22T12:25:19.206Z,23.84
2023-04-22T12:26:19.205Z,23.79
2023-04-22T12:27:19.184Z,23.84
2023-04-22T12:28:19.190Z,23.70
2023-04-22T12:29:19.176Z,23.55
2023-04-22T12:30:19.155Z,23.73
2023-04-22T12:31:19.155Z,23.83
2023-04-22T12:32:19.140Z,23.95
2023-04-22T12:33:19.133Z,24.12
2023-04-22T12:34:19.112Z,24.12
2023-04-22T12:35:19.112Z,24.25
2023-04-22T12:36:19.093Z,24.37
2023-04-22T12:37:19.111Z,24.47
2023-04-22T12:38:19.080Z,24.46
2023-04-22T12:39:19.082Z,24.37
2023-04-22T12:40:19.044Z,24.45
2023-04-22T12:41:19.040Z,24.57
2023-04-22T12:42:19.025Z,24.65
2023-04-22T12:43:19.034Z,24.76
2023-04-22T12:44:19.010Z,24.90
2023-04-22T12:45:18.989Z,25.09
2023-04-22T12:46:19.016Z,25.27
2023-04-22T12:47:19.016Z,25.25
2023-04-22T12:48:19.127Z,25.35
2023-04-22T12:49:18.967Z,25.43
2023-04-22T12:50:18.937Z,25.57
2023-04-22T12:51:18.938Z,25.39
2023-04-22T12:52:18.935Z,25.33
2023-04-22T12:53:18.934Z,25.25
2023-04-22T12:54:18.896Z,25.23
2023-04-22T12:55:18.879Z,25.14
2023-04-22T12:56:18.873Z,25.03